Flight Track Log - Related Links

Times and Time Zones

All times are in EDT time to prevent confusion due to time zone crossing. See the N419B flight status page for this flight to view local times or setup timezone preferences in your user account.

Time Position Orientation Groundspeed Altitude Reporting Facility
EDT Latitude Longitude Course Direction KTS MPH feet Rate Location/Type
Fri 09:03:45 AM 26.0017 -80.2342 294° West 88 101 400  Level Miami Center
Fri 09:04:59 AM 26.0136 -80.2644 294° West 144 166 1,100 426 Climbing Miami Center
Fri 09:06:06 AM 26.0208 -80.3131 279° West 154 177 1,400 372 Climbing Miami Center
Fri 09:07:08 AM 26.0175 -80.3594 265° West 150 173 1,900 372 Climbing Miami Center
Fri 09:08:15 AM 26.0122 -80.4122 264° West 145 167 2,200 541 Climbing Miami Center
Fri 09:09:10 AM 26.0069 -80.4492 261° West 135 155 3,000 344 Climbing Miami Center
Fri 09:10:17 AM 26.0058 -80.5000 269° West 153 176 2,900 -49 Descending Miami Center
Fri 09:11:13 AM 26.0300 -80.5308 311° West 182 209 2,900  Level Miami Center
Fri 09:12:08 AM 26.0758 -80.5344 356° North 177 204 2,900  Level Miami Center
Fri 09:13:15 AM 26.1344 -80.5294 North 186 214 2,900 150 Level Miami Center
Fri 09:15:00 AM 26.2195 -80.5317 359° North  Level Estimated
Fri 09:22:00 AM 26.5598 -80.5406 359° North  Level Estimated
Fri 09:23:00 AM 26.6084 -80.5418 359° North  Level Estimated
Fri 09:24:00 AM 26.6570 -80.5431 359° North  Level Estimated
Fri 09:25:00 AM 26.7056 -80.5444 359° North  Level Estimated
Fri 09:26:00 AM 26.7542 -80.5457 359° North  Level Estimated
Fri 09:27:00 AM 26.8028 -80.5470 359° North  Level Estimated
Fri 09:28:00 AM 26.8514 -80.5482 359° North  Level Estimated
Fri 09:29:00 AM 26.9000 -80.5495 359° North  Level Estimated
Fri 09:30:00 AM 26.9486 -80.5508 359° North  Level Estimated
Fri 09:30:51 AM 26.9092 -80.3650 359° North 183 211 5,700  Level Miami Center
Fri 09:31:00 AM 26.9972 -80.5521 359° North  Level Estimated
Fri 09:31:51 AM 26.9639 -80.3550 North 197 227 5,300  Level Miami Center
Fri 09:32:00 AM 27.0459 -80.5534 359° North  Level Estimated
Fri 09:32:51 AM 27.0144 -80.3331 21° North 191 220 5,000  Level Miami Center
Fri 09:33:00 AM 27.0945 -80.5547 359° North  Level Estimated
Fri 09:33:51 AM 27.0589 -80.3111 24° Northeast 178 205 4,900  Level Miami Center
Fri 09:34:00 AM 27.1431 -80.5559 359° North  Level Estimated
Fri 09:34:51 AM 27.0989 -80.2983 16° North 167 192 5,000  Level Miami Center
Fri 09:35:00 AM 27.1917 -80.5572 359° North  Level Estimated
Fri 09:35:51 AM 27.1533 -80.2883 North 167 192 5,000  Level Miami Center
Fri 09:36:51 AM 27.1992 -80.2919 356° North 162 186 4,900  Descending Miami Center
Fri 09:37:51 AM 27.2425 -80.3094 340° North 162 186 5,000  Climbing Miami Center
Fri 09:38:51 AM 27.2839 -80.3247 342° North 167 192 4,900 -50 Descending Miami Center
Fri 09:39:51 AM 27.3317 -80.3425 342° North 167 192 4,900  Level Miami Center
Fri 09:40:51 AM 27.3811 -80.3606 342° North 167 192 4,900  Level Miami Center
Fri 09:41:51 AM 27.4267 -80.3806 339° North 167 192 4,900  Level Miami Center
Fri 09:42:51 AM 27.4722 -80.3961 343° North 167 192 4,900 50 Level Miami Center
Fri 09:43:51 AM 27.5136 -80.4136 339° North 167 192 5,000  Climbing Miami Center
Fri 09:44:51 AM 27.5592 -80.4292 343° North 167 192 4,900 -50 Descending Miami Center
Fri 09:45:51 AM 27.6108 -80.4494 341° North 167 192 4,900  Level Miami Center
Fri 09:46:51 AM 27.6583 -80.4675 341° North 167 192 4,900  Level Miami Center
Fri 09:47:51 AM 27.6997 -80.4828 342° North 167 192 4,900 32 Level Miami Center
Fri 09:49:56 AM 27.8000 -80.5167 343° North 175 201 5,000 32 Climbing Orlando TRACON
Fri 09:50:57 AM 27.8500 -80.5333 344° North 174 200 5,000  Level Orlando TRACON
Fri 09:52:03 AM 27.9000 -80.5500 344° North 175 201 5,000  Level Orlando TRACON
Fri 09:53:03 AM 27.9500 -80.5667 344° North 177 204 5,000  Level Orlando TRACON
Fri 09:54:03 AM 28.0000 -80.6000 330° Northwest 177 204 5,000 -100 Level Orlando TRACON
Fri 09:55:03 AM 28.0333 -80.6000 360° North 173 199 4,800  Descending Orlando TRACON
Fri 09:56:09 AM 28.0833 -80.6333 330° Northwest 169 194 5,000 47 Climbing Orlando TRACON
Fri 09:57:10 AM 28.1333 -80.6500 344° North 175 201 4,900 -50 Descending Orlando TRACON
Fri 09:58:10 AM 28.1833 -80.6667 344° North 182 209 4,900 151 Level Orlando TRACON
Fri 09:59:09 AM 28.2333 -80.6833 344° North 173 199 5,200 500 Climbing Orlando TRACON
Fri 10:00:10 AM 28.2667 -80.7000 336° Northwest 152 175 5,900 645 Climbing Orlando TRACON
Fri 10:01:10 AM 28.3167 -80.7167 344° North 158 182 6,500 474 Climbing Orlando TRACON
Fri 10:02:04 AM 28.3500 -80.7333 336° Northwest 164 189 6,800 211 Climbing Orlando TRACON
Fri 10:03:04 AM 28.4000 -80.7500 344° North 171 197 6,900 50 Climbing Orlando TRACON
Fri 10:04:04 AM 28.4333 -80.7667 336° Northwest 179 206 6,900 50 Level Orlando TRACON
Fri 10:05:04 AM 28.4833 -80.7833 344° North 180 207 7,000 50 Climbing Orlando TRACON
Fri 10:06:05 AM 28.5333 -80.8000 344° North 177 204 7,000  Level Orlando TRACON
Fri 10:07:05 AM 28.5833 -80.8167 344° North 179 206 7,000 -50 Level Orlando TRACON
Fri 10:08:05 AM 28.6333 -80.8333 344° North 182 209 6,900  Descending Orlando TRACON
Fri 10:09:05 AM 28.6833 -80.8667 330° Northwest 178 205 7,000  Climbing Orlando TRACON
Fri 10:10:05 AM 28.7167 -80.8833 336° Northwest 181 208 6,900 -50 Descending Orlando TRACON
Fri 10:11:06 AM 28.7667 -80.9000 344° North 181 208 6,900 34 Level Orlando TRACON
Fri 10:13:02 AM 28.8592 -80.9344 342° North 178 205 7,000  Climbing Jacksonville Center
Fri 10:13:57 AM 28.9011 -80.9525 339° North 179 206 6,900  Descending Jacksonville Center
Fri 10:14:58 AM 28.9514 -80.9681 345° North 185 213 7,000  Climbing Jacksonville Center
Fri 10:15:53 AM 28.9956 -80.9839 343° North 179 206 6,900  Descending Jacksonville Center
Fri 10:16:54 AM 29.0439 -81.0044 340° North 179 206 7,000  Climbing Jacksonville Center
Fri 10:17:54 AM 29.0903 -81.0297 335° Northwest 182 209 6,900  Descending Jacksonville Center
Fri 10:19:01 AM 29.1425 -81.0478 343° North 178 205 7,000  Climbing Jacksonville Center
Fri 10:20:02 AM 29.1889 -81.0683 339° North 178 205 6,900 -52 Descending Jacksonville Center
Fri 10:20:57 AM 29.2328 -81.0842 343° North 182 209 6,900  Level Jacksonville Center
Fri 10:21:58 AM 29.2792 -81.1069 337° Northwest 183 211 6,900 49 Level Jacksonville Center
Fri 10:22:59 AM 29.3317 -81.1250 343° North 182 209 7,000 47 Climbing Jacksonville Center
Fri 10:24:06 AM 29.3819 -81.1433 342° North 181 208 7,000  Level Jacksonville Center
Fri 10:25:07 AM 29.4322 -81.1592 345° North 179 206 7,000 -49 Level Jacksonville Center
Fri 10:26:08 AM 29.4806 -81.1844 336° Northwest 178 205 6,900 -50 Descending Jacksonville Center
Fri 10:27:08 AM 29.5289 -81.1981 346° North 180 207 6,900  Level Jacksonville Center
Fri 10:28:09 AM 29.5728 -81.2186 338° Northwest 178 205 6,900 71 Level Jacksonville Center
Fri 10:28:33 AM 29.5939 -81.2256 344° North 178 205 7,000  Climbing Jacksonville Center
Fri 10:29:34 AM 29.6400 -81.2414 343° North 181 208 6,900 -49 Descending Jacksonville Center
Fri 10:30:35 AM 29.6861 -81.2572 343° North 180 207 6,900 49 Level Jacksonville Center
Fri 10:31:36 AM 29.7406 -81.2781 342° North 183 211 7,000 49 Climbing Jacksonville Center
Fri 10:32:37 AM 29.7889 -81.2964 342° North 182 209 7,000  Level Jacksonville Center
Fri 10:33:38 AM 29.8350 -81.3172 339° North 181 208 7,000 -49 Level Jacksonville Center
Fri 10:34:39 AM 29.8875 -81.3356 343° North 185 213 6,900  Descending Jacksonville Center
Fri 10:35:40 AM 29.9378 -81.3561 340° North 190 219 7,000 49 Climbing Jacksonville Center
Fri 10:36:41 AM 29.9861 -81.3697 346° North 183 211 7,000  Level Jacksonville Center
Fri 10:37:43 AM 30.0364 -81.3931 338° Northwest 185 213 7,000 -49 Level Jacksonville Center
Fri 10:38:44 AM 30.0867 -81.4089 345° North 185 213 6,900 49 Descending Jacksonville Center
Fri 10:39:45 AM 30.1350 -81.4275 342° North 181 208 7,100 49 Climbing Jacksonville Center
Fri 10:40:46 AM 30.1853 -81.4436 345° North 185 213 7,000 -49 Descending Jacksonville Center
Fri 10:41:47 AM 30.2333 -81.4622 341° North 184 212 7,000  Level Jacksonville Center
Fri 10:42:47 AM 30.2817 -81.4831 340° North 180 207 7,000  Level Jacksonville Center
Fri 10:43:48 AM 30.3278 -81.5039 339° North 179 206 7,000  Level Jacksonville Center
Fri 10:44:55 AM 30.3842 -81.4886 13° North 193 222 7,000  Level Jacksonville Center
Fri 10:45:50 AM 30.4319 -81.4689 20° North 190 219 7,000 -49 Level Jacksonville Center
Fri 10:46:57 AM 30.4900 -81.4439 20° North 194 223 6,900 -59 Descending Jacksonville Center
Fri 10:47:31 AM 30.5192 -81.4336 17° North 193 222 6,900  Level Jacksonville Center
Fri 10:47:58 AM 30.5400 -81.4236 22° Northeast 193 222 6,900  Level Jacksonville Center
Fri 10:48:31 AM 30.5692 -81.4136 16° North 188 216 6,900 98 Level Jacksonville Center
Fri 10:48:59 AM 30.5919 -81.4061 16° North 192 221 7,000 100 Climbing Jacksonville Center
Fri 10:49:31 AM 30.6189 -81.3911 26° Northeast 189 217 7,000  Level Jacksonville Center
Fri 10:50:00 AM 30.6439 -81.3811 19° North 192 221 7,000  Level Jacksonville Center
Fri 10:50:31 AM 30.6731 -81.3758 North 193 222 7,000  Level Jacksonville Center
Fri 10:51:01 AM 30.6958 -81.3658 21° North 196 226 7,000  Level Jacksonville Center
Fri 10:51:31 AM 30.7250 -81.3531 21° North 202 232 7,000  Level Jacksonville Center
Fri 10:52:31 AM 30.7725 -81.3283 24° Northeast 207 238 7,000 -50 Level Jacksonville Center
Fri 10:53:31 AM 30.8267 -81.3056 20° North 202 232 6,900 -50 Descending Jacksonville Center
Fri 10:54:31 AM 30.8764 -81.2853 19° North 196 226 6,900 50 Level Jacksonville Center
Fri 10:55:31 AM 30.9283 -81.2650 19° North 196 226 7,000 50 Climbing Jacksonville Center
Fri 10:56:31 AM 30.9803 -81.2447 19° North 191 220 7,000  Level Jacksonville Center
Fri 10:57:31 AM 31.0281 -81.2197 24° Northeast 191 220 7,000 -50 Level Jacksonville Center
Fri 10:58:31 AM 31.0800 -81.1994 18° North 191 220 6,900  Descending Jacksonville Center
Fri 10:59:31 AM 31.1319 -81.1719 24° Northeast 191 220 7,000  Climbing Jacksonville Center
Fri 11:00:31 AM 31.1839 -81.1539 17° North 185 213 6,900  Descending Jacksonville Center
Fri 11:01:31 AM 31.2378 -81.1333 18° North 191 220 7,000 100 Climbing Jacksonville Center
Fri 11:02:31 AM 31.2792 -81.1133 22° Northeast 191 220 7,100  Climbing Jacksonville Center
Fri 11:03:31 AM 31.3311 -81.0878 23° Northeast 191 220 7,000 -100 Descending Jacksonville Center
Fri 11:04:31 AM 31.3872 -81.0625 21° North 191 220 6,900 50 Descending Jacksonville Center
Fri 11:05:31 AM 31.4369 -81.0419 19° North 191 220 7,100 50 Climbing Jacksonville Center
Fri 11:06:31 AM 31.4889 -81.0192 21° North 192 221 7,000 -50 Descending Jacksonville Center
Fri 11:07:31 AM 31.5344 -80.9986 21° North 187 215 7,000 -150 Level Jacksonville Center
Fri 11:08:31 AM 31.5925 -80.9731 21° North 200 230 6,700 -650 Descending Jacksonville Center
Fri 11:09:31 AM 31.6506 -80.9547 15° North 207 238 5,700 -900 Descending Jacksonville Center
Fri 11:10:31 AM 31.7067 -80.9292 21° North 212 244 4,900 -400 Descending Jacksonville Center
Fri 11:11:31 AM 31.7522 -80.9086 21° North 202 232 4,900  Level Jacksonville Center
Fri 11:13:00 AM 31.8153 -80.8760 24° Northeast  Level FlightAware Approximate
Fri 11:20:00 AM 32.1161 -80.7335 16° North  Level FlightAware Approximate
Fri 11:21:00 AM 32.1568 -80.7108 12° North  Level FlightAware Approximate
Fri 11:22:00 AM 32.2018 -80.6982 40° Northeast  Level FlightAware Approximate
Fri 11:23:00 AM 32.2167 -80.6833 40° Northeast  Level FlightAware Approximate
Fri 11:24:00 AM 32.2244 -80.6975 40° Northeast  Level Estimated
Fri 11:25:00 AM 32.2244 -80.6975 40° Northeast  Level Estimated
Fri 11:26:00 AM 32.2244 -80.6975 40° Northeast  Level Estimated
Fri 11:27:00 AM 32.2244 -80.6975 40° Northeast  Level Estimated
Fri 11:28:00 AM 32.2244 -80.6975 40° Northeast  Level Estimated
Fri 11:29:00 AM 32.2244 -80.6975 40° Northeast  Level Estimated

Login

Don't have an account? Register now (free) for customized features, flight alerts, and more!